sensor_id;sensor_type;location;lat;lon;timestamp;P1;durP1;ratioP1;P2;durP2;ratioP2
47866;SDS011;33628;50.806;11.586;2023-09-19T00:01:19;4.88;;;1.67;;
47866;SDS011;33628;50.806;11.586;2023-09-19T00:03:46;3.15;;;1.80;;
47866;SDS011;33628;50.806;11.586;2023-09-19T00:06:15;3.97;;;1.63;;
47866;SDS011;33628;50.806;11.586;2023-09-19T00:08:41;4.28;;;1.55;;
47866;SDS011;33628;50.806;11.586;2023-09-19T00:11:11;3.78;;;1.58;;
47866;SDS011;33628;50.806;11.586;2023-09-19T00:13:37;2.50;;;1.38;;
47866;SDS011;33628;50.806;11.586;2023-09-19T00:16:08;5.65;;;1.40;;
47866;SDS011;33628;50.806;11.586;2023-09-19T00:18:36;3.60;;;1.67;;
47866;SDS011;33628;50.806;11.586;2023-09-19T00:21:03;4.20;;;1.52;;
47866;SDS011;33628;50.806;11.586;2023-09-19T00:23:35;4.57;;;1.30;;
47866;SDS011;33628;50.806;11.586;2023-09-19T00:26:01;2.83;;;1.58;;
47866;SDS011;33628;50.806;11.586;2023-09-19T00:28:29;3.05;;;1.30;;
47866;SDS011;33628;50.806;11.586;2023-09-19T00:30:57;2.28;;;1.33;;
47866;SDS011;33628;50.806;11.586;2023-09-19T00:33:27;2.25;;;1.05;;
47866;SDS011;33628;50.806;11.586;2023-09-19T00:35:56;3.47;;;1.20;;
47866;SDS011;33628;50.806;11.586;2023-09-19T00:38:23;1.48;;;1.05;;
47866;SDS011;33628;50.806;11.586;2023-09-19T00:40:54;2.55;;;1.00;;
47866;SDS011;33628;50.806;11.586;2023-09-19T00:43:22;2.80;;;1.30;;
47866;SDS011;33628;50.806;11.586;2023-09-19T00:45:50;2.55;;;1.10;;
47866;SDS011;33628;50.806;11.586;2023-09-19T00:48:18;2.63;;;0.95;;
47866;SDS011;33628;50.806;11.586;2023-09-19T00:50:46;2.08;;;1.10;;
47866;SDS011;33628;50.806;11.586;2023-09-19T00:53:18;2.92;;;1.73;;
47866;SDS011;33628;50.806;11.586;2023-09-19T00:55:48;1.48;;;1.00;;
47866;SDS011;33628;50.806;11.586;2023-09-19T00:58:17;2.03;;;1.40;;
47866;SDS011;33628;50.806;11.586;2023-09-19T01:00:45;1.77;;;1.02;;
47866;SDS011;33628;50.806;11.586;2023-09-19T01:03:12;2.60;;;0.98;;
47866;SDS011;33628;50.806;11.586;2023-09-19T01:05:40;2.05;;;1.17;;
47866;SDS011;33628;50.806;11.586;2023-09-19T01:08:08;2.45;;;1.10;;
47866;SDS011;33628;50.806;11.586;2023-09-19T01:10:37;3.45;;;0.98;;
47866;SDS011;33628;50.806;11.586;2023-09-19T01:13:08;2.88;;;1.33;;
47866;SDS011;33628;50.806;11.586;2023-09-19T01:15:44;2.35;;;1.38;;
47866;SDS011;33628;50.806;11.586;2023-09-19T01:18:20;3.60;;;1.40;;
47866;SDS011;33628;50.806;11.586;2023-09-19T01:20:53;3.13;;;1.25;;
47866;SDS011;33628;50.806;11.586;2023-09-19T01:23:24;2.42;;;1.08;;
47866;SDS011;33628;50.806;11.586;2023-09-19T01:26:05;2.67;;;1.30;;
47866;SDS011;33628;50.806;11.586;2023-09-19T01:28:41;1.73;;;1.33;;
47866;SDS011;33628;50.806;11.586;2023-09-19T01:31:21;3.95;;;1.30;;
47866;SDS011;33628;50.806;11.586;2023-09-19T01:33:56;2.40;;;1.20;;
47866;SDS011;33628;50.806;11.586;2023-09-19T01:36:29;3.38;;;1.20;;
47866;SDS011;33628;50.806;11.586;2023-09-19T01:38:57;2.75;;;1.15;;
47866;SDS011;33628;50.806;11.586;2023-09-19T01:41:35;2.10;;;1.27;;
47866;SDS011;33628;50.806;11.586;2023-09-19T01:44:15;2.70;;;1.40;;
47866;SDS011;33628;50.806;11.586;2023-09-19T01:46:48;1.55;;;1.00;;
47866;SDS011;33628;50.806;11.586;2023-09-19T01:49:18;2.97;;;1.00;;
47866;SDS011;33628;50.806;11.586;2023-09-19T01:51:53;5.80;;;1.42;;
47866;SDS011;33628;50.806;11.586;2023-09-19T01:54:30;3.45;;;1.30;;
47866;SDS011;33628;50.806;11.586;2023-09-19T01:57:04;5.00;;;1.63;;
47866;SDS011;33628;50.806;11.586;2023-09-19T01:59:36;1.58;;;1.20;;
47866;SDS011;33628;50.806;11.586;2023-09-19T02:02:08;3.33;;;1.00;;
47866;SDS011;33628;50.806;11.586;2023-09-19T02:04:35;4.20;;;1.38;;
47866;SDS011;33628;50.806;11.586;2023-09-19T02:07:02;1.67;;;1.10;;
47866;SDS011;33628;50.806;11.586;2023-09-19T02:09:31;3.25;;;1.20;;
47866;SDS011;33628;50.806;11.586;2023-09-19T02:12:01;2.75;;;1.10;;
47866;SDS011;33628;50.806;11.586;2023-09-19T02:14:29;2.92;;;1.38;;
47866;SDS011;33628;50.806;11.586;2023-09-19T02:16:56;1.88;;;1.05;;
47866;SDS011;33628;50.806;11.586;2023-09-19T02:19:24;3.75;;;2.25;;
47866;SDS011;33628;50.806;11.586;2023-09-19T02:21:51;4.47;;;1.50;;
47866;SDS011;33628;50.806;11.586;2023-09-19T02:24:18;4.10;;;1.38;;
47866;SDS011;33628;50.806;11.586;2023-09-19T02:26:46;1.90;;;1.30;;
47866;SDS011;33628;50.806;11.586;2023-09-19T02:29:13;5.43;;;1.50;;
47866;SDS011;33628;50.806;11.586;2023-09-19T02:31:40;2.20;;;1.25;;
47866;SDS011;33628;50.806;11.586;2023-09-19T02:34:09;3.30;;;1.25;;
47866;SDS011;33628;50.806;11.586;2023-09-19T02:36:38;1.67;;;1.05;;
47866;SDS011;33628;50.806;11.586;2023-09-19T02:39:05;4.03;;;1.52;;
47866;SDS011;33628;50.806;11.586;2023-09-19T02:41:34;4.78;;;1.65;;
47866;SDS011;33628;50.806;11.586;2023-09-19T02:44:01;5.55;;;1.60;;
47866;SDS011;33628;50.806;11.586;2023-09-19T02:46:29;2.42;;;1.33;;
47866;SDS011;33628;50.806;11.586;2023-09-19T02:48:56;2.45;;;1.30;;
47866;SDS011;33628;50.806;11.586;2023-09-19T02:51:23;4.00;;;1.60;;
47866;SDS011;33628;50.806;11.586;2023-09-19T02:53:51;3.38;;;1.20;;
47866;SDS011;33628;50.806;11.586;2023-09-19T02:56:18;3.22;;;1.15;;
47866;SDS011;33628;50.806;11.586;2023-09-19T02:58:45;2.33;;;1.05;;
47866;SDS011;33628;50.806;11.586;2023-09-19T03:01:14;1.10;;;0.90;;
47866;SDS011;33628;50.806;11.586;2023-09-19T03:03:41;3.05;;;1.30;;
47866;SDS011;33628;50.806;11.586;2023-09-19T03:06:08;3.20;;;1.30;;
47866;SDS011;33628;50.806;11.586;2023-09-19T03:08:35;5.18;;;1.55;;
47866;SDS011;33628;50.806;11.586;2023-09-19T03:11:06;3.15;;;1.20;;
47866;SDS011;33628;50.806;11.586;2023-09-19T03:13:43;3.03;;;1.48;;
47866;SDS011;33628;50.806;11.586;2023-09-19T03:16:12;2.72;;;1.42;;
47866;SDS011;33628;50.806;11.586;2023-09-19T03:18:41;2.58;;;1.10;;
47866;SDS011;33628;50.806;11.586;2023-09-19T03:21:07;3.40;;;1.20;;
47866;SDS011;33628;50.806;11.586;2023-09-19T03:23:34;6.50;;;1.25;;
47866;SDS011;33628;50.806;11.586;2023-09-19T03:26:01;2.22;;;1.25;;
47866;SDS011;33628;50.806;11.586;2023-09-19T03:28:32;3.78;;;1.33;;
47866;SDS011;33628;50.806;11.586;2023-09-19T03:31:00;2.05;;;1.17;;
47866;SDS011;33628;50.806;11.586;2023-09-19T04:51:14;3.60;;;1.65;;
47866;SDS011;33628;50.806;11.586;2023-09-19T04:53:58;2.78;;;1.52;;
47866;SDS011;33628;50.806;11.586;2023-09-19T04:56:25;4.75;;;1.40;;
47866;SDS011;33628;50.806;11.586;2023-09-19T04:58:51;2.45;;;1.17;;
47866;SDS011;33628;50.806;11.586;2023-09-19T05:01:18;2.55;;;1.40;;
47866;SDS011;33628;50.806;11.586;2023-09-19T05:03:45;4.13;;;1.55;;
47866;SDS011;33628;50.806;11.586;2023-09-19T05:06:16;2.47;;;1.50;;
47866;SDS011;33628;50.806;11.586;2023-09-19T05:08:43;2.95;;;1.88;;
47866;SDS011;33628;50.806;11.586;2023-09-19T05:11:10;2.13;;;1.58;;
47866;SDS011;33628;50.806;11.586;2023-09-19T05:13:36;2.60;;;1.60;;
47866;SDS011;33628;50.806;11.586;2023-09-19T05:16:03;10.40;;;1.90;;
47866;SDS011;33628;50.806;11.586;2023-09-19T05:18:30;6.15;;;1.75;;
47866;SDS011;33628;50.806;11.586;2023-09-19T05:20:57;5.95;;;1.88;;
47866;SDS011;33628;50.806;11.586;2023-09-19T05:23:25;4.13;;;1.70;;
47866;SDS011;33628;50.806;11.586;2023-09-19T05:25:53;5.43;;;2.28;;
47866;SDS011;33628;50.806;11.586;2023-09-19T05:28:20;8.05;;;1.80;;
47866;SDS011;33628;50.806;11.586;2023-09-19T05:30:47;3.65;;;2.03;;
47866;SDS011;33628;50.806;11.586;2023-09-19T05:33:14;5.72;;;2.05;;
47866;SDS011;33628;50.806;11.586;2023-09-19T05:35:41;6.85;;;2.67;;
47866;SDS011;33628;50.806;11.586;2023-09-19T05:38:08;6.03;;;2.70;;
47866;SDS011;33628;50.806;11.586;2023-09-19T05:40:36;4.70;;;2.47;;
47866;SDS011;33628;50.806;11.586;2023-09-19T05:43:04;4.95;;;2.25;;
47866;SDS011;33628;50.806;11.586;2023-09-19T05:45:31;5.65;;;2.13;;
47866;SDS011;33628;50.806;11.586;2023-09-19T05:48:05;5.18;;;1.83;;
47866;SDS011;33628;50.806;11.586;2023-09-19T05:50:34;3.72;;;2.35;;
47866;SDS011;33628;50.806;11.586;2023-09-19T05:53:00;5.57;;;2.10;;
47866;SDS011;33628;50.806;11.586;2023-09-19T05:55:27;5.95;;;2.08;;
47866;SDS011;33628;50.806;11.586;2023-09-19T05:57:55;3.95;;;1.95;;
47866;SDS011;33628;50.806;11.586;2023-09-19T06:00:23;5.03;;;2.00;;
47866;SDS011;33628;50.806;11.586;2023-09-19T06:02:50;4.80;;;2.10;;
47866;SDS011;33628;50.806;11.586;2023-09-19T06:05:18;2.83;;;2.20;;
47866;SDS011;33628;50.806;11.586;2023-09-19T06:07:44;4.00;;;1.98;;
47866;SDS011;33628;50.806;11.586;2023-09-19T06:10:11;4.28;;;1.90;;
47866;SDS011;33628;50.806;11.586;2023-09-19T06:12:38;6.00;;;2.00;;
47866;SDS011;33628;50.806;11.586;2023-09-19T06:15:07;3.75;;;1.80;;
47866;SDS011;33628;50.806;11.586;2023-09-19T06:17:41;6.90;;;2.10;;
47866;SDS011;33628;50.806;11.586;2023-09-19T06:20:09;6.95;;;1.80;;
47866;SDS011;33628;50.806;11.586;2023-09-19T06:26:47;4.43;;;1.63;;
47866;SDS011;33628;50.806;11.586;2023-09-19T06:29:15;4.63;;;1.70;;
47866;SDS011;33628;50.806;11.586;2023-09-19T06:31:43;6.82;;;1.75;;
47866;SDS011;33628;50.806;11.586;2023-09-19T06:34:10;6.70;;;1.70;;
47866;SDS011;33628;50.806;11.586;2023-09-19T06:36:37;2.83;;;1.40;;
47866;SDS011;33628;50.806;11.586;2023-09-19T06:39:04;3.60;;;1.30;;
47866;SDS011;33628;50.806;11.586;2023-09-19T06:41:32;3.03;;;0.77;;
47866;SDS011;33628;50.806;11.586;2023-09-19T06:44:04;2.60;;;0.82;;
47866;SDS011;33628;50.806;11.586;2023-09-19T06:46:31;2.20;;;0.80;;
47866;SDS011;33628;50.806;11.586;2023-09-19T06:49:03;4.68;;;0.93;;
47866;SDS011;33628;50.806;11.586;2023-09-19T06:51:32;2.38;;;0.95;;
47866;SDS011;33628;50.806;11.586;2023-09-19T06:54:00;3.03;;;1.13;;
47866;SDS011;33628;50.806;11.586;2023-09-19T06:56:27;4.32;;;1.40;;
47866;SDS011;33628;50.806;11.586;2023-09-19T06:58:54;4.40;;;1.25;;
47866;SDS011;33628;50.806;11.586;2023-09-19T07:01:21;1.98;;;1.20;;
47866;SDS011;33628;50.806;11.586;2023-09-19T07:03:48;2.85;;;0.90;;
47866;SDS011;33628;50.806;11.586;2023-09-19T07:06:16;1.83;;;0.70;;
47866;SDS011;33628;50.806;11.586;2023-09-19T07:08:43;1.83;;;1.13;;
47866;SDS011;33628;50.806;11.586;2023-09-19T07:11:11;4.07;;;1.10;;
47866;SDS011;33628;50.806;11.586;2023-09-19T07:13:38;1.67;;;1.02;;
47866;SDS011;33628;50.806;11.586;2023-09-19T07:16:05;2.75;;;0.90;;
47866;SDS011;33628;50.806;11.586;2023-09-19T07:18:31;2.80;;;1.20;;
47866;SDS011;33628;50.806;11.586;2023-09-19T07:20:58;1.83;;;0.70;;
47866;SDS011;33628;50.806;11.586;2023-09-19T07:23:32;2.47;;;0.90;;
47866;SDS011;33628;50.806;11.586;2023-09-19T07:26:01;2.45;;;1.00;;
47866;SDS011;33628;50.806;11.586;2023-09-19T07:28:32;2.50;;;0.90;;
47866;SDS011;33628;50.806;11.586;2023-09-19T07:31:01;2.35;;;1.10;;
47866;SDS011;33628;50.806;11.586;2023-09-19T07:33:29;2.35;;;0.68;;
47866;SDS011;33628;50.806;11.586;2023-09-19T07:35:56;1.15;;;0.90;;
47866;SDS011;33628;50.806;11.586;2023-09-19T07:38:22;2.22;;;0.90;;
47866;SDS011;33628;50.806;11.586;2023-09-19T07:40:50;1.90;;;0.82;;
47866;SDS011;33628;50.806;11.586;2023-09-19T07:43:17;5.50;;;0.95;;
47866;SDS011;33628;50.806;11.586;2023-09-19T07:45:44;1.80;;;0.80;;
47866;SDS011;33628;50.806;11.586;2023-09-19T07:48:10;2.40;;;0.70;;
47866;SDS011;33628;50.806;11.586;2023-09-19T07:50:40;1.77;;;0.85;;
47866;SDS011;33628;50.806;11.586;2023-09-19T07:53:09;2.85;;;1.13;;
47866;SDS011;33628;50.806;11.586;2023-09-19T07:55:39;1.30;;;0.90;;
47866;SDS011;33628;50.806;11.586;2023-09-19T07:58:08;2.40;;;0.75;;
47866;SDS011;33628;50.806;11.586;2023-09-19T08:00:35;1.73;;;0.70;;
47866;SDS011;33628;50.806;11.586;2023-09-19T08:03:02;0.70;;;0.50;;
47866;SDS011;33628;50.806;11.586;2023-09-19T08:05:30;0.93;;;0.50;;
47866;SDS011;33628;50.806;11.586;2023-09-19T08:07:56;1.77;;;0.60;;
47866;SDS011;33628;50.806;11.586;2023-09-19T08:10:24;1.80;;;0.55;;
47866;SDS011;33628;50.806;11.586;2023-09-19T08:12:53;2.35;;;0.45;;
47866;SDS011;33628;50.806;11.586;2023-09-19T08:15:25;1.05;;;0.60;;
47866;SDS011;33628;50.806;11.586;2023-09-19T08:17:51;1.63;;;0.50;;
47866;SDS011;33628;50.806;11.586;2023-09-19T08:20:18;1.95;;;0.60;;
47866;SDS011;33628;50.806;11.586;2023-09-19T08:22:46;1.77;;;0.60;;
47866;SDS011;33628;50.806;11.586;2023-09-19T08:25:14;3.03;;;0.63;;
47866;SDS011;33628;50.806;11.586;2023-09-19T08:27:43;1.80;;;0.70;;
47866;SDS011;33628;50.806;11.586;2023-09-19T08:30:13;2.67;;;0.70;;
47866;SDS011;33628;50.806;11.586;2023-09-19T08:32:42;2.40;;;0.50;;
47866;SDS011;33628;50.806;11.586;2023-09-19T08:35:09;1.77;;;0.50;;
47866;SDS011;33628;50.806;11.586;2023-09-19T08:37:36;2.03;;;0.43;;
47866;SDS011;33628;50.806;11.586;2023-09-19T08:40:03;1.15;;;0.50;;
47866;SDS011;33628;50.806;11.586;2023-09-19T08:42:48;1.20;;;0.60;;
47866;SDS011;33628;50.806;11.586;2023-09-19T08:45:19;1.30;;;0.60;;
47866;SDS011;33628;50.806;11.586;2023-09-19T08:48:04;3.65;;;0.65;;
47866;SDS011;33628;50.806;11.586;2023-09-19T08:50:55;4.32;;;0.85;;
47866;SDS011;33628;50.806;11.586;2023-09-19T08:53:27;3.17;;;0.70;;
47866;SDS011;33628;50.806;11.586;2023-09-19T08:56:00;6.70;;;0.60;;
47866;SDS011;33628;50.806;11.586;2023-09-19T08:58:31;1.10;;;0.50;;
47866;SDS011;33628;50.806;11.586;2023-09-19T09:01:01;1.50;;;0.55;;
47866;SDS011;33628;50.806;11.586;2023-09-19T09:03:32;2.50;;;0.70;;
47866;SDS011;33628;50.806;11.586;2023-09-19T09:06:00;3.10;;;0.77;;
47866;SDS011;33628;50.806;11.586;2023-09-19T09:08:27;1.35;;;0.70;;
47866;SDS011;33628;50.806;11.586;2023-09-19T09:10:56;2.17;;;0.80;;
47866;SDS011;33628;50.806;11.586;2023-09-19T09:13:24;3.05;;;0.75;;
47866;SDS011;33628;50.806;11.586;2023-09-19T09:15:52;3.38;;;0.73;;
47866;SDS011;33628;50.806;11.586;2023-09-19T09:18:20;1.13;;;0.63;;
47866;SDS011;33628;50.806;11.586;2023-09-19T09:20:49;3.25;;;0.60;;
47866;SDS011;33628;50.806;11.586;2023-09-19T09:23:16;1.42;;;0.70;;
47866;SDS011;33628;50.806;11.586;2023-09-19T09:25:49;1.42;;;0.60;;
47866;SDS011;33628;50.806;11.586;2023-09-19T09:28:21;5.07;;;0.60;;
47866;SDS011;33628;50.806;11.586;2023-09-19T09:30:48;2.60;;;0.88;;
47866;SDS011;33628;50.806;11.586;2023-09-19T09:33:14;1.63;;;0.70;;
47866;SDS011;33628;50.806;11.586;2023-09-19T09:35:51;2.35;;;0.85;;
47866;SDS011;33628;50.806;11.586;2023-09-19T09:40:46;1.52;;;0.82;;
47866;SDS011;33628;50.806;11.586;2023-09-19T09:43:25;2.03;;;0.90;;
47866;SDS011;33628;50.806;11.586;2023-09-19T09:46:06;1.65;;;1.00;;
47866;SDS011;33628;50.806;11.586;2023-09-19T09:48:57;4.05;;;1.30;;
47866;SDS011;33628;50.806;11.586;2023-09-19T09:51:44;2.72;;;0.80;;
47866;SDS011;33628;50.806;11.586;2023-09-19T09:54:14;2.28;;;0.90;;
47866;SDS011;33628;50.806;11.586;2023-09-19T09:56:54;1.85;;;1.05;;
47866;SDS011;33628;50.806;11.586;2023-09-19T10:02:13;2.72;;;0.93;;
47866;SDS011;33628;50.806;11.586;2023-09-19T10:04:41;3.97;;;1.80;;
47866;SDS011;33628;50.806;11.586;2023-09-19T10:07:28;2.05;;;0.98;;
47866;SDS011;33628;50.806;11.586;2023-09-19T10:10:01;2.38;;;1.08;;
47866;SDS011;33628;50.806;11.586;2023-09-19T10:12:45;1.92;;;1.10;;
47866;SDS011;33628;50.806;11.586;2023-09-19T10:15:14;2.00;;;1.20;;
47866;SDS011;33628;50.806;11.586;2023-09-19T10:17:42;2.65;;;1.23;;
47866;SDS011;33628;50.806;11.586;2023-09-19T10:20:12;4.35;;;1.45;;
47866;SDS011;33628;50.806;11.586;2023-09-19T10:23:00;3.67;;;1.30;;
47866;SDS011;33628;50.806;11.586;2023-09-19T10:25:29;3.42;;;1.50;;
47866;SDS011;33628;50.806;11.586;2023-09-19T10:27:56;2.38;;;0.98;;
47866;SDS011;33628;50.806;11.586;2023-09-19T10:30:28;3.97;;;1.48;;
47866;SDS011;33628;50.806;11.586;2023-09-19T10:32:57;5.20;;;1.60;;
47866;SDS011;33628;50.806;11.586;2023-09-19T10:35:26;6.88;;;2.50;;
47866;SDS011;33628;50.806;11.586;2023-09-19T10:37:54;2.50;;;1.40;;
47866;SDS011;33628;50.806;11.586;2023-09-19T10:40:24;3.47;;;1.55;;
47866;SDS011;33628;50.806;11.586;2023-09-19T10:43:00;2.13;;;1.17;;
47866;SDS011;33628;50.806;11.586;2023-09-19T10:45:31;2.85;;;1.40;;
47866;SDS011;33628;50.806;11.586;2023-09-19T10:47:59;3.00;;;1.30;;
47866;SDS011;33628;50.806;11.586;2023-09-19T10:50:28;4.60;;;1.42;;
47866;SDS011;33628;50.806;11.586;2023-09-19T10:52:59;4.38;;;1.58;;
47866;SDS011;33628;50.806;11.586;2023-09-19T10:55:31;4.47;;;1.58;;
47866;SDS011;33628;50.806;11.586;2023-09-19T10:58:01;3.60;;;1.48;;
47866;SDS011;33628;50.806;11.586;2023-09-19T11:00:52;3.63;;;1.50;;
47866;SDS011;33628;50.806;11.586;2023-09-19T11:03:19;6.30;;;1.60;;
47866;SDS011;33628;50.806;11.586;2023-09-19T11:06:00;7.13;;;2.35;;
47866;SDS011;33628;50.806;11.586;2023-09-19T11:08:59;4.88;;;2.08;;
47866;SDS011;33628;50.806;11.586;2023-09-19T11:11:41;4.43;;;1.88;;
47866;SDS011;33628;50.806;11.586;2023-09-19T11:14:15;3.15;;;1.50;;
47866;SDS011;33628;50.806;11.586;2023-09-19T11:20:21;3.13;;;1.27;;
47866;SDS011;33628;50.806;11.586;2023-09-19T11:23:20;3.90;;;1.58;;
47866;SDS011;33628;50.806;11.586;2023-09-19T11:25:49;4.57;;;1.80;;
47866;SDS011;33628;50.806;11.586;2023-09-19T11:28:32;3.88;;;1.88;;
47866;SDS011;33628;50.806;11.586;2023-09-19T11:37:25;5.47;;;1.70;;
47866;SDS011;33628;50.806;11.586;2023-09-19T11:40:26;4.50;;;1.40;;
47866;SDS011;33628;50.806;11.586;2023-09-19T11:42:54;3.70;;;2.03;;
47866;SDS011;33628;50.806;11.586;2023-09-19T11:48:28;3.53;;;1.63;;
47866;SDS011;33628;50.806;11.586;2023-09-19T11:50:55;6.70;;;2.00;;
47866;SDS011;33628;50.806;11.586;2023-09-19T11:53:23;1.92;;;1.35;;
47866;SDS011;33628;50.806;11.586;2023-09-19T11:55:50;4.70;;;1.77;;
47866;SDS011;33628;50.806;11.586;2023-09-19T11:58:18;2.45;;;1.40;;
47866;SDS011;33628;50.806;11.586;2023-09-19T12:00:45;2.90;;;1.50;;
47866;SDS011;33628;50.806;11.586;2023-09-19T12:03:12;4.32;;;1.48;;
47866;SDS011;33628;50.806;11.586;2023-09-19T12:05:45;2.28;;;1.30;;
47866;SDS011;33628;50.806;11.586;2023-09-19T12:08:12;3.83;;;1.60;;
47866;SDS011;33628;50.806;11.586;2023-09-19T12:10:46;3.38;;;1.50;;
47866;SDS011;33628;50.806;11.586;2023-09-19T12:13:15;2.63;;;1.50;;
47866;SDS011;33628;50.806;11.586;2023-09-19T12:15:43;2.75;;;1.70;;
47866;SDS011;33628;50.806;11.586;2023-09-19T12:18:25;6.20;;;1.60;;
47866;SDS011;33628;50.806;11.586;2023-09-19T12:20:54;2.20;;;1.20;;
47866;SDS011;33628;50.806;11.586;2023-09-19T12:23:21;3.97;;;1.70;;
47866;SDS011;33628;50.806;11.586;2023-09-19T12:25:47;3.85;;;1.75;;
47866;SDS011;33628;50.806;11.586;2023-09-19T12:28:18;4.40;;;1.73;;
47866;SDS011;33628;50.806;11.586;2023-09-19T12:30:47;3.05;;;1.67;;
47866;SDS011;33628;50.806;11.586;2023-09-19T12:33:15;2.78;;;1.80;;
47866;SDS011;33628;50.806;11.586;2023-09-19T12:35:44;3.65;;;1.85;;
47866;SDS011;33628;50.806;11.586;2023-09-19T12:38:13;4.97;;;1.83;;
47866;SDS011;33628;50.806;11.586;2023-09-19T12:40:50;3.83;;;1.77;;
47866;SDS011;33628;50.806;11.586;2023-09-19T12:43:17;4.88;;;1.65;;
47866;SDS011;33628;50.806;11.586;2023-09-19T12:45:44;3.80;;;2.10;;
47866;SDS011;33628;50.806;11.586;2023-09-19T12:48:17;3.05;;;1.88;;
47866;SDS011;33628;50.806;11.586;2023-09-19T12:51:01;5.47;;;1.75;;
47866;SDS011;33628;50.806;11.586;2023-09-19T12:53:33;3.25;;;1.73;;
47866;SDS011;33628;50.806;11.586;2023-09-19T12:56:04;4.05;;;1.92;;
47866;SDS011;33628;50.806;11.586;2023-09-19T12:58:34;3.97;;;1.90;;
47866;SDS011;33628;50.806;11.586;2023-09-19T13:01:13;3.85;;;2.15;;
47866;SDS011;33628;50.806;11.586;2023-09-19T13:03:40;5.47;;;1.90;;
47866;SDS011;33628;50.806;11.586;2023-09-19T13:06:07;3.20;;;1.80;;
47866;SDS011;33628;50.806;11.586;2023-09-19T13:08:37;4.38;;;2.00;;
47866;SDS011;33628;50.806;11.586;2023-09-19T13:11:05;4.03;;;2.03;;
47866;SDS011;33628;50.806;11.586;2023-09-19T13:13:38;4.72;;;2.10;;
47866;SDS011;33628;50.806;11.586;2023-09-19T13:16:07;5.55;;;2.10;;
47866;SDS011;33628;50.806;11.586;2023-09-19T13:18:43;4.65;;;2.25;;
47866;SDS011;33628;50.806;11.586;2023-09-19T13:21:17;4.88;;;2.30;;
47866;SDS011;33628;50.806;11.586;2023-09-19T13:23:54;3.70;;;1.95;;
47866;SDS011;33628;50.806;11.586;2023-09-19T13:26:25;5.20;;;2.00;;
47866;SDS011;33628;50.806;11.586;2023-09-19T13:28:53;3.47;;;2.08;;
47866;SDS011;33628;50.806;11.586;2023-09-19T13:31:22;4.35;;;2.08;;
47866;SDS011;33628;50.806;11.586;2023-09-19T13:33:50;5.32;;;2.15;;
47866;SDS011;33628;50.806;11.586;2023-09-19T13:36:18;6.93;;;1.88;;
47866;SDS011;33628;50.806;11.586;2023-09-19T13:38:44;4.35;;;2.00;;
47866;SDS011;33628;50.806;11.586;2023-09-19T13:41:16;4.50;;;2.28;;
47866;SDS011;33628;50.806;11.586;2023-09-19T13:43:43;3.72;;;2.10;;
47866;SDS011;33628;50.806;11.586;2023-09-19T13:46:14;6.45;;;2.15;;
47866;SDS011;33628;50.806;11.586;2023-09-19T13:48:43;3.95;;;2.10;;
47866;SDS011;33628;50.806;11.586;2023-09-19T13:51:10;3.55;;;1.90;;
47866;SDS011;33628;50.806;11.586;2023-09-19T13:53:38;4.80;;;2.10;;
47866;SDS011;33628;50.806;11.586;2023-09-19T13:56:05;3.13;;;1.70;;
47866;SDS011;33628;50.806;11.586;2023-09-19T13:58:34;6.65;;;2.38;;
47866;SDS011;33628;50.806;11.586;2023-09-19T14:01:01;5.10;;;1.80;;
47866;SDS011;33628;50.806;11.586;2023-09-19T14:03:28;3.22;;;1.98;;
47866;SDS011;33628;50.806;11.586;2023-09-19T14:05:55;4.25;;;2.20;;
47866;SDS011;33628;50.806;11.586;2023-09-19T14:08:22;5.43;;;2.15;;
47866;SDS011;33628;50.806;11.586;2023-09-19T14:10:49;5.40;;;2.17;;
47866;SDS011;33628;50.806;11.586;2023-09-19T14:13:16;3.78;;;2.05;;
47866;SDS011;33628;50.806;11.586;2023-09-19T14:15:44;4.80;;;2.05;;
47866;SDS011;33628;50.806;11.586;2023-09-19T14:18:10;4.85;;;3.08;;
47866;SDS011;33628;50.806;11.586;2023-09-19T14:20:37;4.93;;;2.40;;
47866;SDS011;33628;50.806;11.586;2023-09-19T14:23:06;5.68;;;2.75;;
47866;SDS011;33628;50.806;11.586;2023-09-19T14:25:33;4.88;;;3.00;;
47866;SDS011;33628;50.806;11.586;2023-09-19T14:28:00;5.35;;;2.40;;
47866;SDS011;33628;50.806;11.586;2023-09-19T14:30:28;6.15;;;2.60;;
47866;SDS011;33628;50.806;11.586;2023-09-19T14:32:56;4.43;;;2.13;;
47866;SDS011;33628;50.806;11.586;2023-09-19T14:35:23;5.93;;;3.15;;
47866;SDS011;33628;50.806;11.586;2023-09-19T14:37:50;4.13;;;2.05;;
47866;SDS011;33628;50.806;11.586;2023-09-19T14:40:17;4.55;;;2.13;;
47866;SDS011;33628;50.806;11.586;2023-09-19T14:42:44;5.82;;;2.30;;
47866;SDS011;33628;50.806;11.586;2023-09-19T14:45:11;3.78;;;2.05;;
47866;SDS011;33628;50.806;11.586;2023-09-19T14:47:37;7.72;;;3.65;;
47866;SDS011;33628;50.806;11.586;2023-09-19T14:50:08;5.00;;;2.53;;
47866;SDS011;33628;50.806;11.586;2023-09-19T14:52:40;3.78;;;2.20;;
47866;SDS011;33628;50.806;11.586;2023-09-19T14:55:07;4.80;;;2.28;;
47866;SDS011;33628;50.806;11.586;2023-09-19T14:57:40;5.03;;;2.67;;
47866;SDS011;33628;50.806;11.586;2023-09-19T15:00:08;5.93;;;2.30;;
47866;SDS011;33628;50.806;11.586;2023-09-19T15:02:38;5.20;;;2.33;;
47866;SDS011;33628;50.806;11.586;2023-09-19T15:05:07;7.15;;;3.35;;
47866;SDS011;33628;50.806;11.586;2023-09-19T15:07:35;5.97;;;2.10;;
47866;SDS011;33628;50.806;11.586;2023-09-19T15:10:03;4.03;;;2.30;;
47866;SDS011;33628;50.806;11.586;2023-09-19T15:12:32;5.55;;;2.10;;
47866;SDS011;33628;50.806;11.586;2023-09-19T15:14:59;6.72;;;2.80;;
47866;SDS011;33628;50.806;11.586;2023-09-19T15:17:26;5.85;;;1.95;;
47866;SDS011;33628;50.806;11.586;2023-09-19T15:19:53;4.65;;;2.10;;
47866;SDS011;33628;50.806;11.586;2023-09-19T15:22:21;4.72;;;1.92;;
47866;SDS011;33628;50.806;11.586;2023-09-19T15:24:48;4.15;;;2.35;;
47866;SDS011;33628;50.806;11.586;2023-09-19T15:27:15;3.20;;;1.88;;
47866;SDS011;33628;50.806;11.586;2023-09-19T15:29:42;4.78;;;2.17;;
47866;SDS011;33628;50.806;11.586;2023-09-19T15:32:09;4.68;;;2.42;;
47866;SDS011;33628;50.806;11.586;2023-09-19T15:34:36;4.93;;;2.15;;
47866;SDS011;33628;50.806;11.586;2023-09-19T15:37:05;6.32;;;2.35;;
47866;SDS011;33628;50.806;11.586;2023-09-19T15:39:36;5.15;;;2.10;;
47866;SDS011;33628;50.806;11.586;2023-09-19T15:42:07;5.65;;;2.28;;
47866;SDS011;33628;50.806;11.586;2023-09-19T15:44:34;5.20;;;2.50;;
47866;SDS011;33628;50.806;11.586;2023-09-19T15:47:04;4.15;;;2.10;;
47866;SDS011;33628;50.806;11.586;2023-09-19T15:49:34;8.40;;;2.38;;
47866;SDS011;33628;50.806;11.586;2023-09-19T15:52:02;5.20;;;2.08;;
47866;SDS011;33628;50.806;11.586;2023-09-19T15:54:29;5.75;;;2.28;;
47866;SDS011;33628;50.806;11.586;2023-09-19T15:57:03;5.72;;;2.42;;
47866;SDS011;33628;50.806;11.586;2023-09-19T15:59:32;4.32;;;1.98;;
47866;SDS011;33628;50.806;11.586;2023-09-19T16:02:01;4.53;;;2.50;;
47866;SDS011;33628;50.806;11.586;2023-09-19T16:04:29;4.65;;;2.25;;
47866;SDS011;33628;50.806;11.586;2023-09-19T16:06:57;4.85;;;1.88;;
47866;SDS011;33628;50.806;11.586;2023-09-19T16:09:25;5.55;;;2.40;;
47866;SDS011;33628;50.806;11.586;2023-09-19T16:11:52;11.07;;;2.42;;
47866;SDS011;33628;50.806;11.586;2023-09-19T16:14:20;8.68;;;2.10;;
47866;SDS011;33628;50.806;11.586;2023-09-19T16:16:46;6.07;;;2.25;;
47866;SDS011;33628;50.806;11.586;2023-09-19T16:19:13;3.72;;;1.83;;
47866;SDS011;33628;50.806;11.586;2023-09-19T16:21:40;7.50;;;1.77;;
47866;SDS011;33628;50.806;11.586;2023-09-19T16:24:06;5.10;;;1.75;;
47866;SDS011;33628;50.806;11.586;2023-09-19T16:26:35;8.13;;;2.17;;
47866;SDS011;33628;50.806;11.586;2023-09-19T16:29:03;4.63;;;1.88;;